Time;durP1;ratioP1;P1;durP2;ratioP2;P2;SDS_P1;SDS_P2;PMS_P1;PMS_P2;Temp;Humidity;BMP_temperature;BMP_pressure;BME280_temperature;BME280_humidity;BME280_pressure;Samples;Min_cycle;Max_cycle;Signal;HPM_P1;HPM_P2
2023/05/20 00:01:57;;;;;;;1.48;1.10;;;;;;;13.93;62.22;102597.53;5097734;27;97870;-28
2023/05/20 00:04:22;;;;;;;3.95;1.02;;;;;;;13.86;62.16;102593.34;5098015;27;96508;-28
2023/05/20 00:06:48;;;;;;;2.55;1.30;;;;;;;13.80;62.13;102597.25;5098020;27;96768;-28
2023/05/20 00:09:13;;;;;;;2.00;1.05;;;;;;;13.81;62.40;102604.44;5097073;27;106207;-27
2023/05/20 00:11:39;;;;;;;2.85;1.08;;;;;;;13.77;62.33;102598.25;5097413;27;97313;-28
2023/05/20 00:14:05;;;;;;;5.38;1.10;;;;;;;13.81;62.76;102601.72;5097536;27;96630;-28
2023/05/20 00:16:30;;;;;;;2.78;1.23;;;;;;;13.78;62.96;102602.75;5079477;27;96851;-28
2023/05/20 00:18:56;;;;;;;2.20;1.00;;;;;;;13.76;62.77;102595.59;5097177;27;99215;-27
2023/05/20 00:21:21;;;;;;;3.50;1.27;;;;;;;13.68;62.80;102600.50;5078794;27;100824;-28
2023/05/20 00:23:47;;;;;;;2.70;1.27;;;;;;;13.67;62.45;102599.63;5096713;27;96626;-28
2023/05/20 00:26:12;;;;;;;2.10;1.08;;;;;;;13.60;62.68;102603.59;5097712;27;96827;-28
2023/05/20 00:28:37;;;;;;;2.95;1.17;;;;;;;13.58;62.43;102603.66;5097268;27;97910;-28
2023/05/20 00:31:03;;;;;;;3.25;1.33;;;;;;;13.56;62.83;102601.97;5096125;27;115800;-29
2023/05/20 00:33:29;;;;;;;2.60;0.93;;;;;;;13.52;63.28;102592.19;5096814;27;96565;-28
2023/05/20 00:35:54;;;;;;;3.67;1.48;;;;;;;13.54;62.59;102601.19;5097671;27;96788;-28
2023/05/20 00:38:19;;;;;;;2.08;1.17;;;;;;;13.45;62.70;102587.97;5097028;27;97151;-28
2023/05/20 00:40:45;;;;;;;3.60;1.08;;;;;;;13.48;63.00;102593.28;5097437;27;98245;-27
2023/05/20 00:43:10;;;;;;;3.55;1.10;;;;;;;13.45;62.94;102582.53;5097472;27;96582;-28
2023/05/20 00:45:37;;;;;;;2.28;1.10;;;;;;;13.41;63.10;102587.22;5097310;27;97168;-28
2023/05/20 00:48:03;;;;;;;2.42;1.10;;;;;;;13.45;62.89;102599.75;5096280;27;98903;-28
2023/05/20 00:50:30;;;;;;;2.15;1.33;;;;;;;13.37;63.03;102583.78;5078140;27;100708;-29
2023/05/20 00:52:55;;;;;;;2.28;1.15;;;;;;;13.32;63.48;102580.38;5078462;27;96689;-29
2023/05/20 00:55:21;;;;;;;2.17;0.95;;;;;;;13.36;63.52;102581.09;5097063;27;96949;-28
2023/05/20 00:57:48;;;;;;;1.75;0.93;;;;;;;13.37;63.35;102581.06;5096750;27;97889;-28
2023/05/20 01:00:14;;;;;;;2.42;1.00;;;;;;;13.34;63.18;102575.72;5077949;27;100994;-27
2023/05/20 01:02:39;;;;;;;1.90;1.17;;;;;;;13.32;63.20;102576.75;5096790;27;96662;-29
2023/05/20 01:05:05;;;;;;;2.88;1.33;;;;;;;13.28;62.76;102576.03;5097404;27;96792;-28
2023/05/20 01:07:31;;;;;;;3.83;1.27;;;;;;;13.28;63.76;102577.88;5077960;27;101217;-28
2023/05/20 01:09:57;;;;;;;3.05;1.17;;;;;;;13.26;63.27;102568.84;5077488;27;100747;-28
2023/05/20 01:12:29;;;;;;;2.95;0.85;;;;;;;13.22;63.36;102568.09;5096315;27;96709;-27
2023/05/20 01:15:04;;;;;;;5.80;1.38;;;;;;;13.25;63.42;102575.22;5078316;27;96765;-28
2023/05/20 01:17:31;;;;;;;2.33;1.35;;;;;;;13.20;63.86;102577.28;5096338;27;99762;-29
2023/05/20 01:19:59;;;;;;;3.92;1.30;;;;;;;13.10;63.60;102552.31;5096132;27;99216;-28
2023/05/20 01:22:26;;;;;;;2.53;1.05;;;;;;;13.12;63.50;102561.28;5096613;27;96751;-29
2023/05/20 01:24:54;;;;;;;4.95;1.63;;;;;;;13.10;64.08;102572.25;5078129;27;96754;-28
2023/05/20 01:27:23;;;;;;;2.55;1.17;;;;;;;13.09;64.19;102569.59;5096319;27;97335;-28
2023/05/20 01:29:50;;;;;;;5.13;1.05;;;;;;;13.05;64.61;102567.97;5077947;27;101387;-28
2023/05/20 01:32:26;;;;;;;4.88;1.15;;;;;;;13.02;63.82;102571.72;5077005;27;96772;-28
2023/05/20 01:34:52;;;;;;;2.92;1.27;;;;;;;12.92;64.21;102544.03;5078046;27;96894;-28
2023/05/20 01:37:18;;;;;;;3.33;1.38;;;;;;;12.93;64.21;102553.06;5095605;27;99232;-28
2023/05/20 01:39:46;;;;;;;4.38;1.30;;;;;;;12.91;64.11;102544.09;5077378;27;99972;-28
2023/05/20 01:42:14;;;;;;;1.83;1.20;;;;;;;12.93;64.10;102545.78;5077694;27;96705;-28
2023/05/20 01:44:40;;;;;;;1.38;1.02;;;;;;;12.93;63.88;102556.66;5077687;27;96827;-28
2023/05/20 01:47:05;;;;;;;2.55;1.25;;;;;;;12.91;63.89;102550.41;5095758;27;99999;-27
2023/05/20 01:49:31;;;;;;;3.72;1.45;;;;;;;12.88;64.08;102546.94;5096037;27;97445;-27
2023/05/20 01:51:56;;;;;;;2.70;1.02;;;;;;;12.90;64.04;102540.50;5096365;27;96609;-28
2023/05/20 01:54:22;;;;;;;3.00;1.60;;;;;;;12.94;64.45;102550.28;5096717;27;96740;-28
2023/05/20 01:56:48;;;;;;;2.67;1.08;;;;;;;12.87;64.58;102548.78;5095837;27;99404;-28
2023/05/20 01:59:13;;;;;;;1.92;1.20;;;;;;;12.86;64.34;102547.00;5077288;27;100891;-28
2023/05/20 02:01:39;;;;;;;2.63;1.15;;;;;;;12.81;64.67;102549.03;5095682;27;96630;-28
2023/05/20 02:04:04;;;;;;;5.80;1.30;;;;;;;12.80;64.53;102547.28;5077805;27;96841;-28
2023/05/20 02:06:30;;;;;;;1.73;1.10;;;;;;;12.81;64.83;102546.34;5095813;27;97955;-28
2023/05/20 02:08:55;;;;;;;1.40;1.10;;;;;;;12.80;64.83;102546.38;5095482;27;96722;-28
2023/05/20 02:11:21;;;;;;;1.83;1.25;;;;;;;12.80;64.82;102546.38;5099492;27;97107;-27
2023/05/20 02:13:46;;;;;;;4.90;1.30;;;;;;;12.79;64.53;102550.94;5099809;27;96783;-28
2023/05/20 02:16:12;;;;;;;1.38;1.00;;;;;;;12.82;64.69;102549.94;5099347;27;98009;-28
2023/05/20 02:18:37;;;;;;;2.92;1.17;;;;;;;12.79;64.99;102544.63;5099871;27;97367;-28
2023/05/20 02:21:03;;;;;;;3.78;0.88;;;;;;;12.75;64.69;102543.88;5099581;27;96518;-27
2023/05/20 02:23:30;;;;;;;3.38;1.52;;;;;;;12.77;64.57;102550.13;5080927;27;96973;-28
2023/05/20 02:25:55;;;;;;;3.88;1.23;;;;;;;12.75;65.19;102543.88;5080134;27;100911;-29
2023/05/20 02:28:20;;;;;;;2.80;1.35;;;;;;;12.72;65.46;102533.13;5099358;27;97311;-28
2023/05/20 02:30:46;;;;;;;2.47;1.40;;;;;;;12.73;65.00;102545.78;5099005;27;96670;-28
2023/05/20 02:33:12;;;;;;;1.77;1.10;;;;;;;12.67;65.09;102536.03;5079733;27;97355;-27
2023/05/20 02:35:38;;;;;;;3.95;1.17;;;;;;;12.66;64.67;102545.16;5080380;27;100939;-28
2023/05/20 02:38:03;;;;;;;2.20;1.23;;;;;;;12.59;65.37;102538.22;5080212;27;100734;-28
2023/05/20 02:40:29;;;;;;;5.07;1.45;;;;;;;12.64;65.60;102535.31;5099674;27;96555;-28
2023/05/20 02:42:54;;;;;;;2.10;1.38;;;;;;;12.64;65.66;102533.47;5099543;27;96844;-28
2023/05/20 02:45:19;;;;;;;3.30;1.38;;;;;;;12.61;65.79;102525.47;5080045;27;100899;-28
2023/05/20 02:47:45;;;;;;;2.05;0.82;;;;;;;12.63;65.93;102530.81;5098883;27;104343;-28
2023/05/20 02:50:10;;;;;;;2.00;1.27;;;;;;;12.62;65.37;102534.50;5098783;27;96533;-28
2023/05/20 02:52:36;;;;;;;2.72;1.02;;;;;;;12.58;65.73;102538.28;5099174;27;96776;-28
2023/05/20 02:55:01;;;;;;;2.75;1.48;;;;;;;12.60;65.70;102536.38;5098804;27;97970;-28
2023/05/20 02:57:27;;;;;;;3.67;1.23;;;;;;;12.56;65.79;102535.66;5098927;27;97768;-28
2023/05/20 02:59:53;;;;;;;2.53;1.25;;;;;;;12.49;66.38;102515.13;5080184;27;96565;-28
2023/05/20 03:02:19;;;;;;;1.67;1.05;;;;;;;12.58;65.82;102524.69;5080301;27;96833;-28
2023/05/20 03:04:45;;;;;;;6.15;1.63;;;;;;;12.57;65.88;102525.66;5098752;27;98055;-28
2023/05/20 03:07:11;;;;;;;2.78;1.50;;;;;;;12.59;66.66;102529.19;5098839;27;99323;-28
2023/05/20 03:09:36;;;;;;;2.65;1.25;;;;;;;12.56;66.84;102535.66;5080034;27;96640;-29
2023/05/20 03:12:02;;;;;;;2.97;1.45;;;;;;;12.51;66.59;102532.22;5098540;27;96796;-27
2023/05/20 03:14:27;;;;;;;2.25;1.27;;;;;;;12.50;66.20;102533.19;5097488;27;99308;-28
2023/05/20 03:16:56;;;;;;;3.10;1.10;;;;;;;12.52;66.43;102537.59;5098457;27;97828;-28
2023/05/20 03:19:22;;;;;;;3.22;1.48;;;;;;;12.51;66.11;102532.22;5098599;27;96587;-27
2023/05/20 03:21:47;;;;;;;1.88;1.20;;;;;;;12.47;66.07;102527.88;5097264;27;96836;-28
2023/05/20 03:24:13;;;;;;;3.08;1.40;;;;;;;12.45;66.84;102527.06;5098638;27;97313;-28
2023/05/20 03:26:41;;;;;;;3.45;1.25;;;;;;;12.45;66.73;102541.53;5098259;27;97677;-28
2023/05/20 03:29:07;;;;;;;2.20;1.23;;;;;;;12.42;66.88;102536.22;5098235;27;96731;-28
2023/05/20 03:31:33;;;;;;;5.20;2.00;;;;;;;12.40;66.89;102543.56;5080026;27;96837;-29
2023/05/20 03:33:58;;;;;;;2.88;1.55;;;;;;;12.35;67.15;102542.88;5097873;27;98041;-28
2023/05/20 03:36:24;;;;;;;4.25;2.05;;;;;;;12.31;67.18;102535.78;5098000;27;98983;-28
2023/05/20 03:38:49;;;;;;;2.92;1.40;;;;;;;12.30;67.01;102528.59;5097787;27;96795;-28
2023/05/20 03:41:14;;;;;;;2.15;1.35;;;;;;;12.27;66.51;102521.44;5098378;27;96769;-28
2023/05/20 03:43:40;;;;;;;2.83;1.52;;;;;;;12.29;66.76;102530.41;5097713;27;99518;-28
2023/05/20 03:46:05;;;;;;;3.00;1.42;;;;;;;12.28;67.42;102533.19;5098073;27;97630;-27
2023/05/20 03:48:31;;;;;;;2.53;1.35;;;;;;;12.24;67.81;102535.16;5098219;27;96531;-28
2023/05/20 03:50:56;;;;;;;3.05;1.48;;;;;;;12.20;68.02;102528.06;5097993;27;96931;-28
2023/05/20 03:53:21;;;;;;;2.15;1.35;;;;;;;12.20;68.16;102535.34;5098060;27;97956;-29
2023/05/20 03:55:47;;;;;;;3.70;1.30;;;;;;;12.10;67.88;102513.09;5098251;27;97818;-28
2023/05/20 03:58:14;;;;;;;2.75;1.60;;;;;;;12.16;67.95;102526.44;5097950;27;96745;-28
2023/05/20 04:00:39;;;;;;;2.65;1.40;;;;;;;12.13;67.44;102529.25;5098062;27;96895;-28
2023/05/20 04:03:05;;;;;;;2.90;1.45;;;;;;;12.09;67.87;102525.81;5096916;27;99665;-28
2023/05/20 04:05:31;;;;;;;3.67;1.48;;;;;;;12.05;68.00;102517.84;5097604;27;97783;-28
2023/05/20 04:07:56;;;;;;;2.88;1.30;;;;;;;12.06;67.95;102516.88;5079217;27;96591;-28
2023/05/20 04:10:22;;;;;;;1.92;1.17;;;;;;;12.07;68.13;102515.94;5097674;27;96809;-27
2023/05/20 04:12:48;;;;;;;3.38;1.58;;;;;;;12.04;67.97;102516.09;5097210;27;97548;-27
2023/05/20 04:15:13;;;;;;;1.83;1.15;;;;;;;12.05;68.35;102523.28;5097547;27;97360;-27
2023/05/20 04:17:39;;;;;;;4.38;1.42;;;;;;;12.06;68.20;102527.75;5097922;27;96445;-28
2023/05/20 04:20:06;;;;;;;2.45;1.27;;;;;;;12.02;68.61;102515.25;5098207;27;96461;-28
2023/05/20 04:22:31;;;;;;;2.90;1.60;;;;;;;12.06;68.90;102527.75;5078755;27;101034;-27
2023/05/20 04:24:57;;;;;;;2.63;1.20;;;;;;;11.99;68.60;102524.44;5097260;27;97794;-28
2023/05/20 04:27:24;;;;;;;4.13;1.52;;;;;;;12.05;68.26;102532.31;5096783;27;96624;-28
2023/05/20 04:29:51;;;;;;;2.90;1.30;;;;;;;12.06;68.59;102531.38;5097710;27;96788;-28
2023/05/20 04:32:18;;;;;;;3.17;1.48;;;;;;;12.10;68.79;102534.84;5076995;27;100870;-28
2023/05/20 04:34:44;;;;;;;2.38;1.30;;;;;;;12.06;68.57;102522.31;5078475;27;101296;-28
2023/05/20 04:37:10;;;;;;;3.38;1.55;;;;;;;12.04;68.82;102532.38;5078953;27;96622;-30
2023/05/20 04:39:35;;;;;;;1.33;1.02;;;;;;;12.05;68.63;102536.84;5097228;27;96803;-27
2023/05/20 04:42:02;;;;;;;2.47;1.30;;;;;;;12.04;69.32;102532.38;5096553;27;99266;-27
2023/05/20 04:44:28;;;;;;;1.63;1.20;;;;;;;12.09;68.67;102538.50;5078808;27;101366;-27
2023/05/20 04:46:54;;;;;;;3.83;1.35;;;;;;;12.09;68.66;102549.38;5097383;27;96671;-28
2023/05/20 04:49:20;;;;;;;3.22;1.23;;;;;;;12.08;68.55;102536.72;5078619;27;96817;-31
2023/05/20 04:51:48;;;;;;;4.43;1.60;;;;;;;12.13;68.16;102540.13;5096051;27;99369;-28
2023/05/20 04:54:16;;;;;;;2.03;1.40;;;;;;;12.08;68.38;102539.44;5078046;27;100766;-28
2023/05/20 04:56:42;;;;;;;1.73;1.20;;;;;;;12.11;67.57;102525.75;5096618;27;96941;-28
2023/05/20 04:59:09;;;;;;;2.55;1.33;;;;;;;12.14;68.28;102528.34;5078470;27;96834;-28
2023/05/20 05:01:35;;;;;;;3.88;1.70;;;;;;;12.03;68.92;102522.44;5096487;27;99283;-28
2023/05/20 05:04:01;;;;;;;2.40;1.52;;;;;;;12.06;69.24;102522.31;5078050;27;100956;-28
2023/05/20 05:06:26;;;;;;;1.88;1.20;;;;;;;12.12;68.85;102522.06;5096815;27;96565;-28
2023/05/20 05:08:51;;;;;;;2.15;1.17;;;;;;;12.10;68.61;102526.69;5096987;27;96974;-28
2023/05/20 05:11:16;;;;;;;2.13;1.38;;;;;;;12.12;68.43;102519.34;5096505;27;100987;-29
2023/05/20 05:13:42;;;;;;;2.15;1.13;;;;;;;12.22;68.73;102533.44;5096427;27;107647;-28
2023/05/20 05:16:07;;;;;;;4.13;1.23;;;;;;;12.27;68.38;102532.28;5096215;27;96593;-28
2023/05/20 05:18:32;;;;;;;4.15;1.50;;;;;;;12.30;68.42;102523.16;5096925;27;96816;-28
2023/05/20 05:20:59;;;;;;;2.13;1.40;;;;;;;12.27;68.72;102524.16;5096647;27;97952;-28
2023/05/20 05:23:25;;;;;;;2.25;1.27;;;;;;;12.26;67.77;102524.22;5077611;27;100779;-28
2023/05/20 05:25:51;;;;;;;2.80;1.45;;;;;;;12.23;68.23;102508.06;5096593;27;96693;-28
2023/05/20 05:28:16;;;;;;;1.70;1.20;;;;;;;12.31;68.76;102506.78;5078077;27;96793;-28
2023/05/20 05:30:42;;;;;;;1.83;1.33;;;;;;;12.43;68.40;102516.25;5096216;27;97416;-27
2023/05/20 05:33:07;;;;;;;2.92;1.35;;;;;;;12.49;68.98;102515.13;5095981;27;99649;-28
2023/05/20 05:35:32;;;;;;;1.60;0.95;;;;;;;12.57;68.46;102512.06;5096726;27;96700;-28
2023/05/20 05:37:58;;;;;;;3.08;1.35;;;;;;;12.53;68.09;102512.16;5096257;27;96854;-28
2023/05/20 05:40:23;;;;;;;2.33;1.10;;;;;;;12.60;67.74;102522.78;5095373;27;99811;-28
2023/05/20 05:42:49;;;;;;;2.85;1.25;;;;;;;12.57;68.22;102510.22;5095992;27;99173;-28
2023/05/20 05:45:14;;;;;;;3.17;1.50;;;;;;;12.70;67.83;102508.75;5095156;27;96768;-28
2023/05/20 05:47:39;;;;;;;2.03;1.40;;;;;;;12.92;68.42;102518.69;5096240;27;96843;-28
2023/05/20 05:50:05;;;;;;;3.97;1.50;;;;;;;13.05;67.21;102510.84;5096106;27;97773;-28
2023/05/20 05:52:30;;;;;;;1.63;1.10;;;;;;;13.20;66.66;102501.97;5095803;27;99371;-28
2023/05/20 05:54:56;;;;;;;3.53;1.65;;;;;;;13.33;66.93;102496.88;5095997;27;96626;-27
2023/05/20 05:57:21;;;;;;;3.10;1.38;;;;;;;13.49;66.48;102511.53;5096464;27;96635;-28
2023/05/20 05:59:46;;;;;;;1.55;1.10;;;;;;;13.54;65.55;102511.31;5096035;27;98160;-28
2023/05/20 06:02:13;;;;;;;2.42;1.42;;;;;;;13.63;66.48;102518.16;5095989;27;97765;-27
2023/05/20 06:04:38;;;;;;;2.55;1.45;;;;;;;13.66;66.33;102509.81;5076951;27;97062;-27
2023/05/20 06:07:04;;;;;;;3.47;1.58;;;;;;;13.78;65.38;102507.41;5095924;27;96852;-28
2023/05/20 06:09:29;;;;;;;1.77;1.30;;;;;;;13.88;65.33;102502.41;5095536;27;96732;-28
2023/05/20 06:11:55;;;;;;;4.78;2.10;;;;;;;13.99;64.94;102507.31;5076928;27;99531;-28
2023/05/20 06:14:20;;;;;;;1.90;1.38;;;;;;;14.02;64.68;102505.34;5095889;27;96420;-27
2023/05/20 06:16:46;;;;;;;3.45;1.30;;;;;;;14.10;64.87;102507.66;5095861;27;96614;-28
2023/05/20 06:19:11;;;;;;;2.67;1.50;;;;;;;14.19;64.76;102514.50;5095415;27;99474;-28
2023/05/20 06:21:37;;;;;;;1.90;1.23;;;;;;;14.21;64.29;102509.88;5095979;27;97796;-29
2023/05/20 06:24:03;;;;;;;3.55;1.50;;;;;;;14.29;64.44;102506.75;5095478;27;96728;-28
2023/05/20 06:26:28;;;;;;;2.80;1.50;;;;;;;14.38;64.45;102501.72;5095711;27;96952;-28
2023/05/20 06:28:54;;;;;;;4.63;1.65;;;;;;;14.57;63.74;102514.44;5094859;27;99608;-28
2023/05/20 06:31:19;;;;;;;2.95;1.30;;;;;;;14.66;63.82;102503.06;5094915;27;99159;-28
2023/05/20 06:33:45;;;;;;;2.85;1.70;;;;;;;14.76;63.56;102509.78;5095410;27;96521;-28
2023/05/20 06:36:10;;;;;;;2.38;1.33;;;;;;;14.81;63.25;102506.81;5095581;27;96838;-29
2023/05/20 06:38:37;;;;;;;3.58;1.48;;;;;;;14.85;63.02;102495.66;5076767;27;99519;-27
2023/05/20 06:41:02;;;;;;;5.05;1.50;;;;;;;14.95;62.90;102496.06;5076696;27;100861;-28
2023/05/20 06:43:27;;;;;;;5.15;1.52;;;;;;;15.06;62.89;102495.47;5095682;27;96708;-27
2023/05/20 06:45:53;;;;;;;3.90;1.45;;;;;;;15.19;62.70;102491.13;5096166;27;96797;-28
2023/05/20 06:48:18;;;;;;;2.22;1.33;;;;;;;15.31;62.47;102489.56;5095729;27;96785;-28
2023/05/20 06:50:44;;;;;;;4.07;1.60;;;;;;;15.38;61.77;102482.78;5095354;27;97789;-29
2023/05/20 06:53:09;;;;;;;5.68;1.52;;;;;;;15.53;61.63;102493.81;5076170;27;96791;-28
2023/05/20 06:55:36;;;;;;;3.10;1.77;;;;;;;15.54;61.35;102476.44;5096157;27;96831;-28
2023/05/20 06:58:02;;;;;;;1.40;1.17;;;;;;;15.61;61.50;102481.50;5080065;27;100238;-29
2023/05/20 07:00:27;;;;;;;2.28;1.27;;;;;;;15.76;61.38;102478.91;5080054;27;99054;-29
2023/05/20 07:02:52;;;;;;;4.82;1.90;;;;;;;15.89;61.31;102480.81;5099020;27;96649;-28
2023/05/20 07:05:18;;;;;;;3.13;1.65;;;;;;;15.91;60.83;102473.41;5099150;27;96800;-28
2023/05/20 07:07:43;;;;;;;4.38;1.40;;;;;;;15.95;60.49;102476.00;5098761;27;97416;-28
2023/05/20 07:10:09;;;;;;;4.40;1.63;;;;;;;16.05;60.86;102472.63;5098430;27;97358;-29
2023/05/20 07:12:34;;;;;;;1.98;1.52;;;;;;;16.23;60.27;102477.97;5098536;27;96609;-28
2023/05/20 07:15:00;;;;;;;6.30;1.65;;;;;;;16.28;60.00;102471.25;5098753;27;96946;-28
2023/05/20 07:17:26;;;;;;;4.43;1.60;;;;;;;16.40;59.74;102476.94;5097950;27;97923;-28
2023/05/20 07:19:51;;;;;;;4.28;1.65;;;;;;;16.40;60.07;102468.75;5079679;27;100643;-29
2023/05/20 07:22:17;;;;;;;2.70;1.70;;;;;;;16.50;59.90;102467.22;5098731;27;96511;-27
2023/05/20 07:24:43;;;;;;;3.45;1.42;;;;;;;16.56;59.51;102465.00;5098601;27;96851;-28
2023/05/20 07:27:08;;;;;;;3.58;1.70;;;;;;;16.77;59.26;102459.19;5098059;27;100001;-29
2023/05/20 07:29:34;;;;;;;3.05;1.75;;;;;;;16.94;59.13;102460.88;5098506;27;98102;-28
2023/05/20 07:32:00;;;;;;;7.13;1.75;;;;;;;17.03;58.75;102457.56;5079486;27;96934;-28
2023/05/20 07:34:25;;;;;;;4.35;1.48;;;;;;;17.22;58.70;102465.50;5098823;27;96899;-27
2023/05/20 07:36:52;;;;;;;2.55;1.48;;;;;;;17.37;58.23;102460.91;5097992;27;99372;-29
2023/05/20 07:39:17;;;;;;;3.30;1.67;;;;;;;17.49;58.03;102459.22;5079233;27;99168;-28
2023/05/20 07:41:43;;;;;;;5.47;1.30;;;;;;;17.59;57.53;102468.59;5097869;27;96557;-28
2023/05/20 07:44:10;;;;;;;4.80;1.70;;;;;;;17.69;57.78;102455.19;5098561;27;96906;-28
2023/05/20 07:46:36;;;;;;;3.60;1.60;;;;;;;17.72;57.26;102454.97;5079206;27;100904;-28
2023/05/20 07:49:02;;;;;;;1.60;1.17;;;;;;;17.73;56.94;102451.25;5097919;27;99428;-27
2023/05/20 07:51:28;;;;;;;6.07;1.52;;;;;;;17.88;57.52;102450.28;5098056;27;96521;-28
2023/05/20 07:53:53;;;;;;;1.58;0.98;;;;;;;17.97;56.89;102454.25;5098501;27;96765;-27
2023/05/20 07:56:20;;;;;;;2.75;1.52;;;;;;;17.97;56.89;102443.28;5098054;27;97327;-28
2023/05/20 07:58:52;;;;;;;3.70;1.40;;;;;;;17.92;56.25;102445.44;5079488;27;101342;-28
2023/05/20 08:01:17;;;;;;;3.85;1.40;;;;;;;17.99;57.00;102438.56;5079763;27;96744;-28
2023/05/20 08:03:43;;;;;;;6.85;1.63;;;;;;;18.20;56.71;102441.72;5097986;27;96823;-28
2023/05/20 08:06:08;;;;;;;3.05;1.42;;;;;;;18.29;56.69;102443.84;5092024;27;104427;-26
2023/05/20 08:08:35;;;;;;;7.20;1.70;;;;;;;18.42;56.20;102442.03;5094796;27;97653;-28
2023/05/20 08:11:00;;;;;;;2.58;1.38;;;;;;;18.46;57.13;102439.94;5078325;27;96730;-27
2023/05/20 08:13:26;;;;;;;6.13;1.95;;;;;;;18.44;56.03;102448.25;5078070;27;97025;-27
2023/05/20 08:15:53;;;;;;;4.50;1.38;;;;;;;18.47;56.78;102441.66;5097457;27;97952;-27
2023/05/20 08:18:19;;;;;;;4.18;1.65;;;;;;;18.60;56.60;102445.34;5078563;27;99152;-27
2023/05/20 08:20:44;;;;;;;5.20;1.40;;;;;;;18.71;56.81;102444.59;5097381;27;96650;-27
2023/05/20 08:23:09;;;;;;;3.80;1.65;;;;;;;18.78;56.42;102445.03;5097475;27;96806;-26
2023/05/20 08:25:36;;;;;;;2.78;1.27;;;;;;;18.84;56.16;102434.50;5097145;27;99261;-26
2023/05/20 08:28:06;;;;;;;2.65;1.40;;;;;;;18.98;55.77;102433.53;5078707;27;100953;-27
2023/05/20 08:30:33;;;;;;;8.38;1.70;;;;;;;19.04;55.38;102429.44;5096848;27;96592;-27
2023/05/20 08:32:58;;;;;;;2.50;1.50;;;;;;;19.10;54.93;102431.75;5078311;27;96902;-26
2023/05/20 08:35:24;;;;;;;3.72;1.42;;;;;;;19.08;54.75;102431.88;5096749;27;99514;-27
2023/05/20 08:37:49;;;;;;;2.33;1.50;;;;;;;19.07;53.99;102427.38;5097556;27;97236;-27
2023/05/20 08:40:15;;;;;;;3.10;1.40;;;;;;;19.09;54.96;102427.25;5097575;27;96723;-29
2023/05/20 08:42:42;;;;;;;2.95;1.38;;;;;;;19.08;54.28;102417.25;5096563;27;96770;-28
2023/05/20 08:45:10;;;;;;;4.05;1.77;;;;;;;19.20;54.00;102426.47;5076962;27;101679;-27
2023/05/20 08:47:40;;;;;;;2.78;1.52;;;;;;;19.34;54.28;102401.63;5077394;27;101050;-26
2023/05/20 08:50:05;;;;;;;4.85;1.52;;;;;;;19.34;53.34;102414.47;5077103;27;97129;-27
2023/05/20 08:52:33;;;;;;;3.40;1.48;;;;;;;19.34;53.25;102409.84;5095938;27;96826;-27
2023/05/20 08:54:59;;;;;;;2.55;1.75;;;;;;;19.53;53.09;102403.88;5095115;27;97445;-27
2023/05/20 08:57:26;;;;;;;3.72;1.67;;;;;;;19.62;53.05;102405.06;5077433;27;101113;-27
2023/05/20 08:59:52;;;;;;;7.25;1.35;;;;;;;19.79;52.49;102410.19;5078400;27;96488;-27
2023/05/20 09:02:17;;;;;;;2.28;1.23;;;;;;;19.82;52.08;102396.19;5097143;27;96770;-27
2023/05/20 09:04:43;;;;;;;5.95;1.58;;;;;;;19.93;51.98;102403.66;5096638;27;97476;-27
2023/05/20 09:07:08;;;;;;;3.33;1.50;;;;;;;19.97;51.97;102407.03;5096686;27;97802;-27
2023/05/20 09:09:34;;;;;;;2.40;1.02;;;;;;;19.99;51.23;102391.28;5096852;27;96853;-27
2023/05/20 09:12:03;;;;;;;2.42;1.48;;;;;;;20.10;51.44;102402.34;5078481;27;96848;-27
2023/05/20 09:14:30;;;;;;;3.05;1.45;;;;;;;20.09;50.13;102397.81;5077868;27;101245;-29
2023/05/20 09:16:55;;;;;;;1.58;1.08;;;;;;;20.12;50.26;102392.09;5077874;27;101574;-26
2023/05/20 09:19:24;;;;;;;4.70;1.77;;;;;;;20.11;50.29;102393.94;5096118;27;96596;-28
2023/05/20 09:21:53;;;;;;;2.15;1.40;;;;;;;20.24;50.87;102380.13;5096633;27;96809;-27
2023/05/20 09:24:24;;;;;;;3.10;1.58;;;;;;;20.36;50.17;102381.91;5077751;27;100764;-28
2023/05/20 09:26:49;;;;;;;1.58;1.00;;;;;;;20.49;49.81;102383.69;5077541;27;99955;-27
2023/05/20 09:29:15;;;;;;;1.75;1.10;;;;;;;20.57;48.77;102393.16;5096704;27;96643;-27
2023/05/20 09:31:40;;;;;;;1.85;0.85;;;;;;;20.68;48.03;102372.13;5095971;27;96945;-27
2023/05/20 09:34:06;;;;;;;2.80;0.98;;;;;;;20.70;48.29;102362.75;5095812;27;98778;-28
2023/05/20 09:36:34;;;;;;;2.30;1.30;;;;;;;20.84;47.37;102360.75;5077906;27;100831;-27
2023/05/20 09:39:02;;;;;;;3.03;0.82;;;;;;;21.10;47.44;102373.28;5077910;27;96723;-27
2023/05/20 09:41:37;;;;;;;2.05;0.77;;;;;;;21.21;46.52;102365.03;5077885;27;96911;-28
2023/05/20 09:44:03;;;;;;;2.45;1.10;;;;;;;21.25;45.88;102370.28;5095767;27;97450;-27
2023/05/20 09:46:30;;;;;;;1.33;1.00;;;;;;;21.15;44.85;102376.53;5077341;27;100939;-27
2023/05/20 09:48:55;;;;;;;1.10;0.80;;;;;;;21.16;44.59;102361.75;5077745;27;96654;-27
2023/05/20 09:51:22;;;;;;;3.53;1.15;;;;;;;21.31;44.71;102365.13;5095993;27;96820;-27
2023/05/20 09:53:50;;;;;;;1.23;0.90;;;;;;;21.40;44.80;102355.22;5077161;27;101321;-27
2023/05/20 09:56:17;;;;;;;1.73;0.90;;;;;;;21.42;44.01;102348.56;5077299;27;100904;-26
2023/05/20 09:58:43;;;;;;;2.80;1.27;;;;;;;21.38;43.88;102354.44;5077535;27;96690;-27
2023/05/20 10:01:09;;;;;;;1.83;0.90;;;;;;;21.36;43.53;102338.06;5077779;27;96820;-27
2023/05/20 10:03:34;;;;;;;2.45;1.20;;;;;;;21.61;44.18;102342.38;5095930;27;99547;-27
2023/05/20 10:06:09;;;;;;;2.05;1.20;;;;;;;21.20;43.78;102360.50;5095631;27;99340;-27
2023/05/20 10:08:37;;;;;;;5.55;1.25;;;;;;;20.99;44.12;102356.75;5095373;27;96667;-27
2023/05/20 10:11:09;;;;;;;1.75;0.93;;;;;;;20.66;44.49;102352.97;5077249;27;96844;-27
2023/05/20 10:14:00;;;;;;;2.20;0.90;;;;;;;20.47;44.32;102344.41;5077100;27;100824;-27
2023/05/20 10:16:48;;;;;;;1.60;0.73;;;;;;;20.42;44.15;102347.53;5095703;27;99041;-27
2023/05/20 10:19:31;;;;;;;2.92;1.45;;;;;;;20.40;44.05;102346.75;5077360;27;96794;-27
2023/05/20 10:22:03;;;;;;;4.10;0.93;;;;;;;20.22;44.75;102342.72;5077390;27;96491;-27
2023/05/20 10:24:32;;;;;;;;;;;;;;;20.16;44.89;102346.81;5095913;27;99074;-27
2023/05/20 10:26:59;;;;;;;2.08;1.00;;;;;;;20.08;45.19;102341.94;5077317;27;100733;-31
2023/05/20 10:29:24;;;;;;;3.22;1.10;;;;;;;19.99;45.64;102333.53;5077257;27;96608;-27
2023/05/20 10:31:51;;;;;;;3.60;1.02;;;;;;;20.24;45.11;102335.25;5098357;27;96797;-28
2023/05/20 10:34:20;;;;;;;1.05;0.73;;;;;;;20.28;44.70;102329.34;5098283;27;97339;-27
2023/05/20 10:36:54;;;;;;;2.58;0.95;;;;;;;20.61;43.80;102327.69;5080560;27;100858;-27
2023/05/20 10:39:27;;;;;;;2.70;0.77;;;;;;;20.29;42.33;102322.00;5099520;27;96588;-27
2023/05/20 10:42:04;;;;;;;2.70;0.90;;;;;;;20.14;44.77;102315.78;5080674;27;96916;-27
2023/05/20 10:44:46;;;;;;;6.95;1.63;;;;;;;20.41;43.41;102300.88;5080131;27;101600;-27
2023/05/20 10:47:12;;;;;;;4.10;1.13;;;;;;;20.54;44.11;102302.47;5080269;27;100943;-28
2023/05/20 10:49:45;;;;;;;2.63;1.10;;;;;;;20.33;44.13;102306.97;5080417;27;96589;-27
2023/05/20 10:52:12;;;;;;;2.13;0.98;;;;;;;20.49;43.47;102298.34;5099277;27;96680;-27
2023/05/20 10:54:46;;;;;;;2.33;1.10;;;;;;;20.82;43.29;102304.91;5080182;27;99040;-27
2023/05/20 10:57:11;;;;;;;7.50;1.15;;;;;;;20.51;43.11;102290.84;5080069;27;100453;-27
2023/05/20 10:59:37;;;;;;;2.03;0.93;;;;;;;20.56;43.29;102303.28;5098368;27;96528;-28
2023/05/20 11:02:02;;;;;;;4.18;1.20;;;;;;;20.66;43.34;102294.28;5099083;27;96886;-27
2023/05/20 11:04:29;;;;;;;1.35;0.90;;;;;;;20.72;42.91;102297.41;5098490;27;98818;-27
2023/05/20 11:06:54;;;;;;;2.92;0.75;;;;;;;20.85;42.53;102296.41;5079885;27;100865;-27
2023/05/20 11:09:20;;;;;;;1.55;0.90;;;;;;;21.22;42.38;102280.44;5098674;27;96951;-27
2023/05/20 11:11:46;;;;;;;1.83;0.98;;;;;;;21.23;41.74;102284.94;5079927;27;96813;-27
2023/05/20 11:14:13;;;;;;;2.00;1.08;;;;;;;21.21;42.00;102289.69;5079802;27;101001;-28
2023/05/20 11:16:40;;;;;;;1.23;0.73;;;;;;;21.24;41.16;102285.81;5080315;27;100960;-27
2023/05/20 11:19:15;;;;;;;1.27;0.80;;;;;;;21.43;40.30;102291.59;5080163;27;96713;-27
2023/05/20 11:21:45;;;;;;;4.70;0.73;;;;;;;21.30;41.14;102277.03;5080071;27;96987;-27